Terminal Aerodrome Forecast
Issued by NWS Shreveport, LA

Home | Current Version | Previous Version | Text Only | Print | Product List | Glossary On
Versions: 1 2 3 4 5 6 7 8 9 10 11 12 13
020
FTUS44 KSHV 111745
TAFGGG
TAF
KGGG 111745Z 1118/1218 26012G18KT P6SM FEW250
     FM120000 VRB04KT P6SM FEW250
     FM121500 35005KT P6SM FEW250=

USA.gov is the U.S. government's official web portal to all federal, state and local government web resources and services.